Virtual Norwegian is not affiliated with Norwegian Air Shuttle in any way.
If you are looking for the real "Norwegian", or you wish to book Norwegian flights, please visit Norwegian.com


We use cookies to ensure you get the best experience on our website.   ACCEPT

ENAT - ALF - Alta (Alta)

General Info Alternate Airport
ICAO: ENAT Elevation: 9 ft ICAO: ENTC
IATA: ALF Country: Norway IATA: TOS
City: Alta Charts: Log in to view charts City: Tromso
Name: Alta Hub: No Name Langnes
General Info
ICAO: ENAT
IATA: ALF
City: Alta
Name: Alta
Elevation: 9 ft
Country: Norway
Charts: Log in to view charts
Hub: No
 
Alternate Airport
ICAO: ENTC
IATA: TOS
City: Tromso
Name: Langnes

Weather
212150Z AUTO 29006KT 260V340 9999 FEW024/// SCT034/// 05/01 Q1015 RESHUP REUP RMK WIND 700FT 32010KT
Weather
212150Z AUTO 29006KT 260V340 9999 FEW024/// SCT034/// 05/01 Q1015 RESHUP REUP RMK WIND 700FT 32010KT

Runway Info
11
Length ILS/LOC Course
2253 m 108.90 113
29
Length ILS/LOC Heading
2253 m N/A 301

NOTAMs
NOTAMs currently unavailable.
NOTAMs
NOTAMs currently unavailable

Route map
Airport
Airport (hub)